Time;durP1;ratioP1;P1;durP2;ratioP2;P2;SDS_P1;SDS_P2;PMS_P1;PMS_P2;Temp;Humidity;BMP_temperature;BMP_pressure;BME280_temperature;BME280_humidity;BME280_pressure;Samples;Min_cycle;Max_cycle;Signal;HPM_P1;HPM_P2
2022/07/12 00:00:04;;;;;;;4.90;4.50;;;;;;;18.05;78.67;156001.66;5073108;28;20466;-76
2022/07/12 00:02:31;;;;;;;4.43;4.03;;;;;;;18.02;78.94;155993.81;5077060;28;20445;-76
2022/07/12 00:04:58;;;;;;;5.07;4.57;;;;;;;17.94;79.04;155973.00;5072224;28;20438;-76
2022/07/12 00:07:26;;;;;;;5.43;4.83;;;;;;;17.91;79.08;155965.16;5072367;28;20553;-76
2022/07/12 00:09:53;;;;;;;5.97;4.43;;;;;;;17.90;79.10;155962.56;5071759;28;20442;-76
2022/07/12 00:12:20;;;;;;;5.43;4.20;;;;;;;17.89;78.97;155959.97;5080397;28;20485;-76
2022/07/12 00:14:48;;;;;;;4.90;4.27;;;;;;;17.88;79.02;155957.34;5071154;28;20442;-76
2022/07/12 00:17:14;;;;;;;4.50;4.10;;;;;;;17.81;79.21;155939.16;5070565;28;20450;-76
2022/07/12 00:19:41;;;;;;;4.30;3.90;;;;;;;17.78;79.54;155931.31;5070911;28;20484;-76
2022/07/12 00:22:08;;;;;;;4.30;3.90;;;;;;;17.77;79.13;155928.69;5070190;28;20497;-76
2022/07/12 00:24:36;;;;;;;4.57;4.17;;;;;;;17.78;79.40;155930.00;5071671;28;20541;-76
2022/07/12 00:27:03;;;;;;;4.60;3.67;;;;;;;17.74;79.19;155920.88;5070368;28;20492;-76
2022/07/12 00:29:29;;;;;;;4.60;4.13;;;;;;;17.69;79.85;155907.88;5068836;28;20552;-76
2022/07/12 00:31:56;;;;;;;4.37;3.90;;;;;;;17.64;79.66;155896.16;5070785;28;20545;-76
2022/07/12 00:34:23;;;;;;;5.53;4.33;;;;;;;17.62;79.92;155889.66;5071740;28;20809;-76
2022/07/12 00:36:50;;;;;;;4.10;3.70;;;;;;;17.60;80.00;155885.78;5068974;28;20442;-76
2022/07/12 00:39:16;;;;;;;4.47;4.07;;;;;;;17.57;80.43;155876.66;5101506;28;20466;-76
2022/07/12 00:41:48;;;;;;;4.70;4.30;;;;;;;17.49;80.71;155857.09;5071291;28;20499;-76
2022/07/12 00:44:15;;;;;;;4.00;3.63;;;;;;;17.46;81.16;155849.25;5060776;28;20482;-76
2022/07/12 00:46:42;;;;;;;3.83;3.47;;;;;;;17.45;80.23;155845.34;5070067;28;20464;-76
2022/07/12 00:49:09;;;;;;;4.30;3.60;;;;;;;17.48;80.85;155853.16;5068246;28;20924;-76
2022/07/12 00:51:36;;;;;;;3.70;3.40;;;;;;;17.52;81.04;155864.91;5071457;28;20789;-76
2022/07/12 00:54:04;;;;;;;4.10;3.77;;;;;;;17.49;80.97;155857.09;5069914;28;20545;-76
2022/07/12 00:56:31;;;;;;;3.87;3.47;;;;;;;17.47;80.96;155851.84;5103364;28;20461;-76
2022/07/12 00:58:59;;;;;;;5.40;3.90;;;;;;;17.46;80.98;155847.94;5102291;28;20510;-76
2022/07/12 01:01:26;;;;;;;4.13;3.73;;;;;;;17.44;81.17;155842.75;5076384;28;20449;-76
2022/07/12 01:03:53;;;;;;;4.60;3.30;;;;;;;17.44;81.11;155842.75;5071387;28;20462;-76
2022/07/12 01:06:21;;;;;;;3.60;3.30;;;;;;;17.39;81.39;155831.06;5066695;28;20453;-76
2022/07/12 01:08:48;;;;;;;2.83;2.63;;;;;;;17.41;81.01;155834.94;5103292;28;20556;-76
2022/07/12 01:11:15;;;;;;;3.40;3.10;;;;;;;17.45;81.01;155845.34;5095783;28;20870;-76
2022/07/12 01:13:42;;;;;;;2.70;2.40;;;;;;;17.45;80.76;155846.63;5069365;28;20835;-76
2022/07/12 01:16:12;;;;;;;2.80;2.50;;;;;;;17.50;80.42;155858.38;5053693;28;20468;-79
2022/07/12 01:18:40;;;;;;;2.63;2.43;;;;;;;17.53;79.97;155866.22;5066626;28;20461;-79
2022/07/12 01:21:08;;;;;;;4.30;3.23;;;;;;;17.45;80.32;155845.34;5069538;28;20480;-79
2022/07/12 01:23:38;;;;;;;2.90;2.70;;;;;;;17.39;80.89;155829.75;5068547;28;20537;-79
2022/07/12 01:26:05;;;;;;;3.10;2.80;;;;;;;17.42;80.60;155837.56;5102274;28;20843;-79
2022/07/12 01:28:32;;;;;;;2.60;2.40;;;;;;;17.43;80.56;155840.13;5070318;28;20454;-80
2022/07/12 01:30:59;;;;;;;2.57;2.37;;;;;;;17.36;80.79;155823.25;5065433;28;20508;-79
2022/07/12 01:33:26;;;;;;;3.50;3.17;;;;;;;17.33;80.94;155814.13;5069277;28;20460;-79
2022/07/12 01:35:53;;;;;;;2.50;2.30;;;;;;;17.38;80.43;155827.13;5105556;27;20453;-79
2022/07/12 01:38:19;;;;;;;2.80;2.33;;;;;;;17.32;80.90;155811.50;5067663;28;20468;-79
2022/07/12 01:40:47;;;;;;;4.93;2.80;;;;;;;17.28;81.18;155801.09;5069964;28;20470;-79
2022/07/12 01:43:14;;;;;;;3.00;2.70;;;;;;;17.31;81.08;155808.91;5070718;28;20515;-79
2022/07/12 01:45:41;;;;;;;3.00;2.70;;;;;;;17.29;81.26;155803.72;5070330;28;20460;-79
2022/07/12 01:48:08;;;;;;;3.30;3.00;;;;;;;17.26;81.26;155797.16;5101110;28;20618;-79
2022/07/12 01:50:35;;;;;;;2.63;2.43;;;;;;;17.26;80.98;155797.16;5100764;28;21010;-79
2022/07/12 01:53:02;;;;;;;3.17;2.27;;;;;;;17.25;81.24;155794.59;5101298;28;20516;-79
2022/07/12 01:55:30;;;;;;;3.10;2.50;;;;;;;17.21;81.50;155784.16;5072593;28;20998;-79
2022/07/12 01:57:59;;;;;;;2.43;2.20;;;;;;;17.15;81.73;155767.28;5069780;28;20520;-79
2022/07/12 02:00:25;;;;;;;4.27;2.47;;;;;;;17.21;81.29;155782.91;5069918;28;20466;-79
2022/07/12 02:02:52;;;;;;;2.73;2.43;;;;;;;17.14;81.57;155765.97;5066013;28;20542;-79
2022/07/12 02:05:19;;;;;;;2.43;2.23;;;;;;;17.15;81.48;155767.28;5101371;28;20454;-79
2022/07/12 02:07:46;;;;;;;2.43;2.23;;;;;;;17.13;81.57;155762.06;5102389;28;20778;-79
2022/07/12 02:10:13;;;;;;;3.17;2.30;;;;;;;17.09;81.62;155751.63;5069417;28;20899;-79
2022/07/12 02:12:39;;;;;;;2.87;2.67;;;;;;;17.08;82.21;155749.06;5073366;28;20460;-79
2022/07/12 02:15:09;;;;;;;2.63;2.43;;;;;;;17.07;81.68;155746.44;5102763;28;20450;-80
2022/07/12 02:17:36;;;;;;;2.60;2.30;;;;;;;17.01;82.18;155733.44;5065414;28;20549;-79
2022/07/12 02:20:03;;;;;;;2.60;2.40;;;;;;;16.98;81.94;155725.63;5101570;28;20480;-79
2022/07/12 02:22:30;;;;;;;2.50;2.30;;;;;;;16.95;81.66;155716.50;5097066;28;20948;-79
2022/07/12 02:24:56;;;;;;;4.60;2.50;;;;;;;16.91;82.11;155707.44;5095405;28;20516;-79
2022/07/12 02:27:23;;;;;;;2.97;2.77;;;;;;;16.88;82.60;155699.63;5099271;28;20868;-79
2022/07/12 02:29:50;;;;;;;2.63;2.20;;;;;;;16.82;82.22;155684.00;5067095;28;20469;-79
2022/07/12 02:32:18;;;;;;;2.50;2.30;;;;;;;16.82;82.40;155682.69;5070152;28;20816;-79
2022/07/12 02:34:45;;;;;;;4.60;2.60;;;;;;;16.82;82.61;155684.00;5067177;28;20826;-79
2022/07/12 02:37:12;;;;;;;3.40;3.10;;;;;;;16.79;81.81;155676.19;5073771;28;20493;-79
2022/07/12 02:39:38;;;;;;;2.63;2.43;;;;;;;16.71;82.12;155654.03;5072437;28;20467;-79
2022/07/12 02:42:05;;;;;;;2.70;2.50;;;;;;;16.69;81.97;155650.16;5072066;28;20454;-79
2022/07/12 02:44:32;;;;;;;2.83;2.63;;;;;;;16.62;81.65;155631.97;5071191;28;20548;-79
2022/07/12 02:47:00;;;;;;;2.60;2.10;;;;;;;16.51;81.81;155603.28;5079879;28;20446;-79
2022/07/12 02:49:28;;;;;;;2.83;2.40;;;;;;;16.49;81.95;155598.09;5072539;28;20448;-76
2022/07/12 02:51:55;;;;;;;3.00;2.70;;;;;;;16.42;82.01;155579.88;5070859;28;20455;-76
2022/07/12 02:54:21;;;;;;;2.47;2.27;;;;;;;16.39;82.31;155573.34;5073633;28;20441;-76
2022/07/12 02:56:48;;;;;;;3.50;2.13;;;;;;;16.31;81.92;155552.56;5103270;28;20567;-76
2022/07/12 02:59:15;;;;;;;4.10;2.70;;;;;;;16.28;82.46;155543.47;5102538;28;20481;-76
2022/07/12 03:01:41;;;;;;;3.40;2.40;;;;;;;16.26;83.23;155538.25;5073188;28;20987;-76
2022/07/12 03:04:08;;;;;;;3.30;2.60;;;;;;;16.20;83.15;155522.66;5079074;28;20493;-76
2022/07/12 03:06:36;;;;;;;3.03;2.73;;;;;;;16.16;83.03;155512.25;5105309;28;20481;-76
2022/07/12 03:09:03;;;;;;;2.50;2.30;;;;;;;16.11;83.41;155499.25;5071706;28;20458;-76
2022/07/12 03:11:30;;;;;;;2.70;2.50;;;;;;;16.08;83.57;155492.75;5073077;28;20788;-76
2022/07/12 03:13:57;;;;;;;2.70;2.40;;;;;;;16.04;83.94;155481.06;5103159;28;20940;-76
2022/07/12 03:16:23;;;;;;;2.63;2.40;;;;;;;16.04;83.75;155482.38;5073265;28;20442;-76
2022/07/12 03:18:50;;;;;;;2.90;2.60;;;;;;;16.02;83.87;155477.13;5072216;28;20548;-76
2022/07/12 03:21:17;;;;;;;3.10;2.70;;;;;;;15.92;84.14;155449.81;5080177;28;20506;-76
2022/07/12 03:23:45;;;;;;;2.60;2.40;;;;;;;15.91;84.27;155447.25;5071797;28;20457;-76
2022/07/12 03:26:12;;;;;;;4.80;2.70;;;;;;;15.90;84.31;155444.63;5105427;28;20452;-76
2022/07/12 03:28:39;;;;;;;3.00;2.40;;;;;;;15.88;84.40;155439.44;5071692;28;20454;-76
2022/07/12 03:31:06;;;;;;;2.70;2.50;;;;;;;15.87;84.68;155436.81;5069970;28;20465;-76
2022/07/12 03:33:33;;;;;;;2.53;2.30;;;;;;;15.87;84.68;155436.81;5068196;28;20538;-76
2022/07/12 03:36:00;;;;;;;3.37;3.07;;;;;;;15.81;85.07;155423.81;5105310;27;20449;-76
2022/07/12 03:38:27;;;;;;;4.23;3.10;;;;;;;15.81;84.92;155422.53;5104541;28;20465;-76
2022/07/12 03:40:55;;;;;;;4.03;3.00;;;;;;;15.82;85.29;155425.13;5072394;28;20484;-76
2022/07/12 03:43:22;;;;;;;6.20;3.60;;;;;;;15.79;85.53;155418.63;5070837;28;20794;-76
2022/07/12 03:45:48;;;;;;;4.90;2.67;;;;;;;15.81;85.68;155423.81;5070189;28;20446;-76
2022/07/12 03:48:15;;;;;;;3.80;3.10;;;;;;;15.83;85.76;155429.03;5070973;28;20457;-76
2022/07/12 03:50:42;;;;;;;3.13;2.83;;;;;;;15.87;85.64;155438.13;5099146;28;20503;-76
2022/07/12 03:53:08;;;;;;;3.03;2.83;;;;;;;15.90;85.87;155444.63;5105461;28;20494;-76
2022/07/12 03:55:35;;;;;;;3.33;3.03;;;;;;;15.90;86.17;155444.63;5094250;28;20784;-79
2022/07/12 03:58:04;;;;;;;3.00;2.80;;;;;;;15.90;86.28;155445.94;5070922;28;20507;-79
2022/07/12 04:00:30;;;;;;;3.00;2.70;;;;;;;15.91;85.96;155447.25;5065866;28;20536;-79
2022/07/12 04:02:57;;;;;;;3.67;3.37;;;;;;;15.91;86.32;155447.25;5074502;28;20466;-79
2022/07/12 04:05:26;;;;;;;3.00;2.70;;;;;;;15.88;86.32;155439.44;5067239;28;20486;-79
2022/07/12 04:07:54;;;;;;;3.40;3.13;;;;;;;15.86;86.64;155435.50;5071582;28;20545;-79
2022/07/12 04:10:21;;;;;;;3.70;2.80;;;;;;;15.90;86.47;155445.94;5078475;28;20451;-79
2022/07/12 04:12:48;;;;;;;3.83;3.30;;;;;;;15.97;87.12;155464.13;5048118;28;20808;-79
2022/07/12 04:15:16;;;;;;;3.90;3.60;;;;;;;16.03;87.59;155479.75;5061444;28;20454;-79
2022/07/12 04:17:43;;;;;;;3.53;3.23;;;;;;;16.12;87.98;155501.88;5072446;28;20450;-79
2022/07/12 04:20:11;;;;;;;3.23;2.93;;;;;;;16.20;86.97;155522.66;5102894;28;20445;-79
2022/07/12 04:22:38;;;;;;;4.23;3.30;;;;;;;16.25;87.33;155535.66;5071358;28;20500;-79
2022/07/12 04:25:05;;;;;;;4.27;3.30;;;;;;;16.28;87.73;155543.47;5104113;28;20541;-79
2022/07/12 04:27:32;;;;;;;3.83;3.40;;;;;;;16.27;87.72;155542.16;5080461;28;20891;-79
2022/07/12 04:29:59;;;;;;;3.67;3.37;;;;;;;16.30;87.64;155549.97;5070928;28;20486;-79
2022/07/12 04:32:27;;;;;;;4.40;3.33;;;;;;;16.33;87.21;155556.47;5071984;28;20519;-79
2022/07/12 04:34:53;;;;;;;3.57;3.20;;;;;;;16.35;87.31;155561.66;5062578;28;20454;-79
2022/07/12 04:37:20;;;;;;;3.43;3.13;;;;;;;16.39;87.57;155572.06;5063702;28;20477;-78
2022/07/12 04:39:47;;;;;;;3.40;2.90;;;;;;;16.54;87.72;155611.16;5083040;28;20490;-78
2022/07/12 04:42:13;;;;;;;4.43;3.27;;;;;;;16.84;87.19;155689.19;5066496;28;20501;-78
2022/07/12 04:44:40;;;;;;;3.53;3.23;;;;;;;17.16;86.07;155769.84;5060396;28;20477;-78
2022/07/12 04:47:07;;;;;;;3.90;3.33;;;;;;;17.46;84.62;155847.94;5078894;28;20462;-78
2022/07/12 04:49:35;;;;;;;3.53;3.23;;;;;;;17.79;83.97;155932.63;5101175;28;20540;-78
2022/07/12 04:52:02;;;;;;;4.10;3.40;;;;;;;17.95;81.89;155974.31;5069722;28;20449;-78
2022/07/12 04:54:29;;;;;;;4.10;3.70;;;;;;;18.09;81.15;156010.72;5070382;28;20941;-78
2022/07/12 04:56:55;;;;;;;4.47;4.07;;;;;;;18.36;80.94;156079.75;5071072;28;20495;-78
2022/07/12 04:59:22;;;;;;;5.50;5.00;;;;;;;18.46;80.34;156105.81;5067817;28;20568;-78
2022/07/12 05:01:49;;;;;;;5.77;5.20;;;;;;;18.81;79.89;156197.06;5076167;28;20864;-79
2022/07/12 05:04:16;;;;;;;7.03;5.07;;;;;;;18.88;79.38;156214.03;5087581;28;20446;-78
2022/07/12 05:06:44;;;;;;;5.00;4.60;;;;;;;18.98;78.91;156241.38;5070619;28;20445;-78
2022/07/12 05:09:11;;;;;;;4.90;4.50;;;;;;;19.17;78.16;156289.53;5101998;28;20449;-78
2022/07/12 05:11:37;;;;;;;5.50;5.00;;;;;;;19.17;77.21;156290.88;5070287;28;20457;-78
2022/07/12 05:14:04;;;;;;;5.60;5.10;;;;;;;19.29;77.29;156322.16;5070159;28;20515;-78
2022/07/12 05:16:32;;;;;;;5.27;4.87;;;;;;;19.49;76.24;156373.03;5069484;28;20548;-78
2022/07/12 05:18:59;;;;;;;5.20;4.70;;;;;;;19.56;75.98;156390.00;5102682;28;20461;-79
2022/07/12 05:21:25;;;;;;;6.33;5.07;;;;;;;19.74;75.55;156438.22;5072882;28;20473;-78
2022/07/12 05:23:53;;;;;;;5.20;4.70;;;;;;;19.79;74.57;156451.28;5066800;28;21042;-78
2022/07/12 05:26:20;;;;;;;5.13;4.47;;;;;;;20.02;74.19;156509.91;5067994;28;20452;-78
2022/07/12 05:28:47;;;;;;;5.30;4.80;;;;;;;20.27;72.86;156573.88;5071138;28;20600;-79
2022/07/12 05:31:14;;;;;;;5.00;4.50;;;;;;;20.42;72.75;156613.00;5069239;28;20445;-78
2022/07/12 05:33:41;;;;;;;5.63;4.87;;;;;;;20.65;71.60;156674.31;5053822;28;20446;-78
2022/07/12 05:36:07;;;;;;;5.70;5.20;;;;;;;20.49;71.63;156632.56;5099304;28;20552;-78
2022/07/12 05:38:34;;;;;;;5.17;4.43;;;;;;;20.68;71.79;156679.56;5100674;28;20858;-78
2022/07/12 05:41:02;;;;;;;6.60;5.20;;;;;;;21.00;70.72;156764.34;5069140;28;20575;-78
2022/07/12 05:43:29;;;;;;;5.77;5.00;;;;;;;21.16;69.71;156806.16;5072037;28;20798;-78
2022/07/12 05:45:56;;;;;;;5.20;4.70;;;;;;;20.85;68.06;156723.91;5070002;28;20461;-78
2022/07/12 05:48:23;;;;;;;5.27;4.83;;;;;;;21.13;69.59;156797.00;5103569;28;20799;-78
2022/07/12 05:50:50;;;;;;;5.83;5.23;;;;;;;21.12;68.82;156794.44;5070447;28;21008;-78
2022/07/12 05:53:21;;;;;;;5.20;4.40;;;;;;;21.36;67.94;156857.09;5109590;28;20433;-78
2022/07/12 05:55:49;;;;;;;4.10;3.80;;;;;;;21.51;65.62;156894.91;5069200;28;20454;-78
2022/07/12 05:58:17;;;;;;;3.97;3.57;;;;;;;21.30;66.05;156840.09;5101508;28;20473;-78
2022/07/12 06:00:44;;;;;;;5.00;4.10;;;;;;;21.61;66.93;156921.00;5069532;28;21018;-78
2022/07/12 06:03:11;;;;;;;4.00;3.70;;;;;;;21.89;64.27;156992.88;5069034;28;20465;-78
2022/07/12 06:05:38;;;;;;;5.97;3.40;;;;;;;22.00;63.14;157022.88;5069565;28;20987;-78
2022/07/12 06:08:06;;;;;;;3.50;3.10;;;;;;;21.90;62.91;156995.47;5070588;28;20441;-78
2022/07/12 06:10:33;;;;;;;3.63;2.90;;;;;;;21.65;63.67;156931.47;5085232;28;20646;-78
2022/07/12 06:13:00;;;;;;;4.17;3.80;;;;;;;21.39;65.03;156863.59;5094140;28;20554;-78
2022/07/12 06:15:29;;;;;;;3.57;3.27;;;;;;;21.42;64.86;156871.44;5071909;28;20490;-78
2022/07/12 06:17:56;;;;;;;5.87;4.13;;;;;;;21.26;64.63;156829.66;5075281;28;20441;-78
2022/07/12 06:20:23;;;;;;;3.73;3.43;;;;;;;21.35;64.54;156854.44;5071180;28;20484;-78
2022/07/12 06:22:49;;;;;;;2.87;2.63;;;;;;;21.84;63.91;156982.38;5090409;28;20469;-78
2022/07/12 06:25:16;;;;;;;3.83;3.53;;;;;;;21.90;62.00;156995.47;5072356;28;20476;-78
2022/07/12 06:27:43;;;;;;;4.47;3.00;;;;;;;21.77;62.38;156962.78;5087207;28;20667;-79
2022/07/12 06:30:11;;;;;;;3.80;3.43;;;;;;;21.78;61.83;156966.75;5078587;28;20460;-78
2022/07/12 06:32:39;;;;;;;2.90;2.60;;;;;;;21.68;62.90;156940.59;5073985;28;20916;-78
2022/07/12 06:35:09;;;;;;;3.60;3.30;;;;;;;22.15;62.08;157060.78;5073324;28;20987;-77
2022/07/12 06:37:36;;;;;;;3.73;3.33;;;;;;;22.61;59.83;157180.94;5071427;28;20445;-78
2022/07/12 06:40:04;;;;;;;3.40;3.10;;;;;;;22.87;59.06;157247.66;5069240;28;20523;-79
2022/07/12 06:42:30;;;;;;;3.50;3.20;;;;;;;23.23;57.60;157341.72;5102547;28;20859;-78
2022/07/12 06:44:59;;;;;;;3.30;3.03;;;;;;;23.30;57.68;157360.00;5073233;28;20438;-78
2022/07/12 06:47:26;;;;;;;2.67;2.47;;;;;;;23.49;56.64;157408.41;5071641;28;20514;-78
2022/07/12 06:49:54;;;;;;;2.80;2.60;;;;;;;23.93;55.06;157522.16;5070801;28;20857;-78
2022/07/12 06:52:21;;;;;;;3.50;2.40;;;;;;;24.16;54.11;157583.69;5073334;28;20996;-78
2022/07/12 06:54:48;;;;;;;2.60;2.40;;;;;;;24.21;54.19;157596.75;5073876;28;20465;-78
2022/07/12 06:57:15;;;;;;;3.53;2.60;;;;;;;24.56;53.72;157685.69;5073468;28;20931;-78
2022/07/12 06:59:41;;;;;;;6.10;2.60;;;;;;;24.27;52.93;157611.13;5071967;28;20480;-78
2022/07/12 07:02:08;;;;;;;2.40;2.20;;;;;;;24.31;53.05;157620.25;5080466;28;20519;-78
2022/07/12 07:04:35;;;;;;;3.93;2.53;;;;;;;24.30;53.39;157617.66;5094314;28;20497;-78
2022/07/12 07:07:04;;;;;;;2.87;2.60;;;;;;;23.99;54.01;157537.81;5080903;28;20466;-78
2022/07/12 07:09:30;;;;;;;2.67;1.90;;;;;;;23.82;53.81;157493.41;5093969;28;20484;-79
2022/07/12 07:11:57;;;;;;;3.03;2.33;;;;;;;23.99;53.60;157539.13;5105575;28;20912;-78
2022/07/12 07:14:24;;;;;;;3.20;1.80;;;;;;;24.25;53.05;157605.91;5088609;28;20960;-79
2022/07/12 07:16:50;;;;;;;2.10;1.83;;;;;;;24.75;52.99;157736.66;5072300;28;20442;-79
2022/07/12 07:19:17;;;;;;;2.50;2.30;;;;;;;25.01;51.09;157803.47;5078129;28;20740;-79
2022/07/12 07:21:44;;;;;;;2.33;2.13;;;;;;;25.00;50.81;157800.84;5093012;28;20505;-78
2022/07/12 07:24:12;;;;;;;2.57;2.37;;;;;;;24.79;50.77;157745.88;5077228;28;20448;-79
2022/07/12 07:26:38;;;;;;;2.77;2.43;;;;;;;25.03;50.32;157808.69;5095805;28;20460;-78
2022/07/12 07:31:50;;;;;;;2.90;2.70;;;;;;;25.68;49.41;157976.28;5067964;28;20777;-79
2022/07/12 07:34:16;;;;;;;1.80;1.70;;;;;;;26.00;48.28;158060.03;5099905;28;20473;-79
2022/07/12 07:36:43;;;;;;;2.20;2.00;;;;;;;26.30;47.19;158138.66;5075056;28;20450;-79
2022/07/12 07:39:12;;;;;;;1.63;1.53;;;;;;;25.96;44.73;158049.59;5064420;28;20519;-79
2022/07/12 07:41:39;;;;;;;2.03;1.53;;;;;;;25.99;46.19;158057.44;5070484;28;20466;-79
2022/07/12 07:44:06;;;;;;;2.40;1.80;;;;;;;26.44;45.27;158175.34;5071323;28;20793;-79
2022/07/12 07:46:33;;;;;;;2.00;1.70;;;;;;;26.20;45.51;158112.47;5104310;28;20465;-79
2022/07/12 07:48:59;;;;;;;1.73;1.50;;;;;;;26.10;46.71;158086.25;5072709;28;20500;-79
2022/07/12 07:51:26;;;;;;;2.17;1.93;;;;;;;26.32;46.09;158143.88;5070343;28;20469;-79
2022/07/12 07:53:53;;;;;;;2.60;1.43;;;;;;;26.09;46.67;158082.28;5066375;28;20453;-79
2022/07/12 07:56:21;;;;;;;1.70;1.37;;;;;;;25.74;46.10;157993.28;5070818;28;20789;-79
2022/07/12 07:58:48;;;;;;;2.03;1.60;;;;;;;25.89;46.03;158031.25;5070567;28;20519;-79
2022/07/12 08:01:14;;;;;;;2.00;1.53;;;;;;;25.51;47.21;157931.75;5053072;28;20453;-79
2022/07/12 08:03:41;;;;;;;1.70;1.20;;;;;;;25.96;46.42;158049.59;5070635;28;20449;-79
2022/07/12 08:06:08;;;;;;;1.47;1.33;;;;;;;25.70;47.15;157981.50;5072194;28;20564;-79
2022/07/12 08:08:34;;;;;;;1.30;0.90;;;;;;;25.35;46.75;157892.47;5071297;28;20557;-79
2022/07/12 08:11:01;;;;;;;1.40;1.20;;;;;;;25.06;48.13;157816.56;5103368;28;20992;-78
2022/07/12 08:13:29;;;;;;;1.50;1.30;;;;;;;24.88;48.98;157769.47;5071220;28;20454;-79
2022/07/12 08:15:56;;;;;;;1.40;1.30;;;;;;;25.18;48.66;157847.94;5065860;28;20493;-79
2022/07/12 08:18:23;;;;;;;1.33;1.00;;;;;;;25.10;47.76;157825.75;5103748;28;20453;-80
2022/07/12 08:20:49;;;;;;;1.40;1.23;;;;;;;25.20;47.63;157853.22;5071577;28;20510;-79
2022/07/12 08:23:16;;;;;;;0.90;0.70;;;;;;;25.13;46.63;157834.84;5065103;28;20576;-79
2022/07/12 08:25:43;;;;;;;1.63;0.93;;;;;;;25.16;45.98;157842.72;5072194;28;20454;-79
2022/07/12 08:28:10;;;;;;;1.10;0.80;;;;;;;25.16;46.68;157842.72;5072809;28;20496;-79
2022/07/12 08:30:38;;;;;;;1.13;0.90;;;;;;;25.37;47.18;157896.38;5088086;28;20457;-79
2022/07/12 08:33:04;;;;;;;1.83;1.40;;;;;;;25.68;46.47;157976.28;5065162;28;20550;-80
2022/07/12 08:35:31;;;;;;;2.37;1.13;;;;;;;25.56;47.18;157946.16;5093817;28;20803;-78
2022/07/12 08:37:58;;;;;;;1.30;1.00;;;;;;;26.02;45.60;158066.63;5071119;28;20507;-80
2022/07/12 08:40:25;;;;;;;3.97;1.10;;;;;;;26.05;46.56;158073.16;5071297;28;20434;-80
2022/07/12 08:42:51;;;;;;;2.40;1.20;;;;;;;26.73;44.99;158248.69;5070172;28;20470;-81
2022/07/12 08:45:18;;;;;;;1.20;0.90;;;;;;;27.14;43.40;158356.13;5078481;28;20445;-81
2022/07/12 08:47:46;;;;;;;2.23;1.30;;;;;;;26.86;43.79;158282.78;5104927;27;20442;-81
2022/07/12 08:50:16;;;;;;;1.50;1.40;;;;;;;26.37;43.93;158155.72;5070137;28;20488;-81
2022/07/12 08:52:45;;;;;;;1.50;1.33;;;;;;;26.01;45.27;158062.66;5097012;28;20442;-81
2022/07/12 08:55:23;;;;;;;3.20;1.57;;;;;;;26.59;45.03;158214.63;5069651;28;20484;-81
2022/07/12 08:57:51;;;;;;;1.37;1.10;;;;;;;26.28;45.20;158132.13;5069302;28;20539;-81
2022/07/12 09:00:19;;;;;;;1.40;1.20;;;;;;;25.70;46.58;157981.50;5100598;28;21641;-80
2022/07/12 09:02:52;;;;;;;1.80;0.80;;;;;;;25.46;45.98;157920.00;5059017;28;20576;-80
2022/07/12 09:05:20;;;;;;;2.83;1.00;;;;;;;25.18;46.01;157847.94;5071611;28;20468;-79
2022/07/12 09:07:48;;;;;;;1.10;1.00;;;;;;;25.14;45.77;157837.50;5071063;28;20470;-78
2022/07/12 09:10:15;;;;;;;1.10;1.00;;;;;;;25.14;45.85;157837.50;5080012;28;20824;-79
2022/07/12 09:12:43;;;;;;;2.00;1.10;;;;;;;25.21;46.29;157854.47;5049257;28;20481;-78
2022/07/12 09:15:17;;;;;;;1.67;1.47;;;;;;;25.80;44.57;158007.69;5070248;28;20546;-80
2022/07/12 09:17:57;;;;;;;1.80;1.33;;;;;;;26.00;43.94;158060.03;5066907;28;20457;-81
2022/07/12 09:20:27;;;;;;;1.33;1.00;;;;;;;25.73;44.49;157989.38;5103773;28;20540;-81
2022/07/12 09:22:56;;;;;;;1.73;1.40;;;;;;;25.99;44.29;158057.44;5069528;28;20527;-81
2022/07/12 09:25:23;;;;;;;2.17;1.10;;;;;;;26.13;44.91;158094.16;5103891;28;20760;-81
2022/07/12 09:27:54;;;;;;;1.90;1.30;;;;;;;25.73;45.04;157989.38;5068574;28;20960;-79
2022/07/12 09:30:23;;;;;;;2.93;1.50;;;;;;;25.70;44.59;157982.81;5069804;28;20438;-78
2022/07/12 09:38:25;;;;;;;1.87;1.30;;;;;;;26.27;44.56;158130.81;5065055;28;20457;-80
2022/07/12 09:40:52;;;;;;;1.30;1.13;;;;;;;26.27;43.37;158130.81;5062106;28;20975;-80
2022/07/12 09:43:19;;;;;;;1.13;1.03;;;;;;;25.71;44.42;157984.09;5069521;28;20497;-80
2022/07/12 09:45:48;;;;;;;1.57;1.30;;;;;;;24.97;46.23;157793.00;5070438;28;20497;-80
2022/07/12 09:48:16;;;;;;;1.10;0.93;;;;;;;25.23;46.30;157861.03;5069797;28;20442;-80
2022/07/12 09:50:47;;;;;;;1.40;1.30;;;;;;;25.01;45.23;157802.16;5069270;28;20446;-80
2022/07/12 09:53:20;;;;;;;1.70;1.20;;;;;;;25.39;45.47;157901.59;5065717;28;21965;-80
2022/07/12 09:55:50;;;;;;;1.67;1.07;;;;;;;26.40;44.52;158164.84;5101461;28;20464;-80
2022/07/12 09:58:23;;;;;;;1.23;0.93;;;;;;;26.83;42.74;158276.25;5051016;28;20471;-80
2022/07/12 10:00:51;;;;;;;1.20;0.97;;;;;;;25.80;44.16;158007.69;5096250;28;20442;-80
2022/07/12 10:03:22;;;;;;;1.30;1.03;;;;;;;25.55;45.47;157942.25;5069802;28;20485;-80
2022/07/12 10:05:51;;;;;;;1.40;1.00;;;;;;;25.75;44.83;157995.91;5070467;28;20430;-80
2022/07/12 10:08:18;;;;;;;1.00;0.90;;;;;;;25.75;45.03;157995.91;5069361;28;20914;-80
2022/07/12 10:10:45;;;;;;;1.90;0.80;;;;;;;25.99;45.17;158058.75;5079756;28;20434;-80
2022/07/12 10:13:12;;;;;;;1.40;1.03;;;;;;;25.32;45.20;157883.28;5098975;28;21002;-80
2022/07/12 10:15:40;;;;;;;1.10;0.90;;;;;;;25.08;45.28;157821.78;5069723;28;20808;-80
2022/07/12 10:18:07;;;;;;;2.27;1.17;;;;;;;25.15;46.70;157838.81;5071084;28;20436;-80
2022/07/12 10:20:34;;;;;;;1.20;0.80;;;;;;;25.27;46.32;157871.53;5099476;28;20454;-80
2022/07/12 10:23:35;;;;;;;2.00;0.90;;;;;;;25.30;45.99;157878.06;5069422;28;20480;-80
2022/07/12 10:26:26;;;;;;;2.30;0.93;;;;;;;25.26;46.73;157867.56;5116126;28;20440;-80
2022/07/12 10:29:04;;;;;;;1.40;1.00;;;;;;;24.76;46.83;157737.97;5089914;28;20441;-79
2022/07/12 10:31:35;;;;;;;2.13;1.00;;;;;;;24.57;47.21;157689.59;5051477;28;20469;-80
2022/07/12 10:34:12;;;;;;;1.20;0.90;;;;;;;24.69;47.37;157721.00;5057107;28;20454;-80
2022/07/12 10:37:10;;;;;;;0.97;0.70;;;;;;;25.05;46.97;157812.59;5099476;28;20521;-80
2022/07/12 10:39:40;;;;;;;1.00;0.90;;;;;;;25.03;46.70;157808.69;5065456;28;20454;-80
2022/07/12 10:42:17;;;;;;;1.10;0.90;;;;;;;24.85;46.99;157761.59;5079385;28;20468;-80
2022/07/12 10:44:46;;;;;;;2.80;0.80;;;;;;;24.81;46.89;157751.13;5090515;28;20521;-81
2022/07/12 10:47:15;;;;;;;1.20;0.90;;;;;;;24.58;46.17;157692.22;5066165;28;20477;-80
2022/07/12 10:49:49;;;;;;;1.30;0.73;;;;;;;24.59;46.93;157694.84;5067055;28;20453;-80
2022/07/12 10:52:18;;;;;;;1.60;0.93;;;;;;;24.72;46.56;157728.88;5070510;28;20844;-80
2022/07/12 10:55:18;;;;;;;1.77;1.27;;;;;;;24.63;46.29;157703.97;5068539;28;20476;-80
2022/07/12 10:57:46;;;;;;;0.90;0.70;;;;;;;24.46;47.01;157660.84;5070712;28;20984;-80
2022/07/12 11:00:15;;;;;;;1.23;1.13;;;;;;;24.29;47.72;157615.03;5074233;28;20557;-80
2022/07/12 11:02:41;;;;;;;2.10;0.97;;;;;;;24.52;47.23;157675.19;5068062;28;20488;-79
2022/07/12 11:05:09;;;;;;;1.20;1.10;;;;;;;24.62;47.26;157701.38;5071114;28;20905;-80
2022/07/12 11:07:35;;;;;;;1.10;0.90;;;;;;;24.22;47.69;157598.06;5073179;28;20482;-80
2022/07/12 11:10:04;;;;;;;1.07;0.87;;;;;;;24.11;48.26;157570.59;5072065;28;20559;-79
2022/07/12 11:12:32;;;;;;;1.10;1.00;;;;;;;24.20;48.52;157594.09;5106342;28;20932;-80
2022/07/12 11:15:00;;;;;;;1.83;1.03;;;;;;;24.06;47.89;157557.47;5070532;28;20435;-80
2022/07/12 11:17:27;;;;;;;1.10;0.90;;;;;;;24.45;47.33;157658.22;5068440;28;20468;-80
2022/07/12 11:20:10;;;;;;;1.40;1.00;;;;;;;24.47;47.51;157662.13;5074346;28;20499;-79
2022/07/12 11:22:39;;;;;;;1.50;0.93;;;;;;;24.75;46.63;157735.41;5106114;28;20477;-79
2022/07/12 11:25:09;;;;;;;1.30;0.90;;;;;;;24.76;46.56;157737.97;5055642;28;20546;-79
2022/07/12 11:27:36;;;;;;;2.03;1.00;;;;;;;24.61;47.72;157698.75;5071297;28;20838;-80
2022/07/12 11:30:04;;;;;;;1.10;0.80;;;;;;;24.54;47.06;157680.47;5073624;28;20430;-79
2022/07/12 11:32:35;;;;;;;1.30;0.80;;;;;;;24.75;46.93;157736.66;5110064;27;20461;-79
2022/07/12 11:35:02;;;;;;;2.90;0.93;;;;;;;24.69;46.67;157719.69;5065537;28;20986;-79